Flight Track Log - Related Links

Times and Time Zones

All times are in EDT time to prevent confusion due to time zone crossing. See the N2710C flight status page for this flight to view local times or setup timezone preferences in your user account.

Time Position Orientation Groundspeed Altitude Reporting Facility
EDT Latitude Longitude Course Direction KTS MPH feet Rate Location/Type
Thu 12:50:08 PM 42.9278 -73.8039 194° South 105 121 4,600  Level Boston Center
Thu 12:52:10 PM 42.8714 -73.8225 194° South 105 121 4,500 -33 Descending Boston Center
Thu 12:53:10 PM 42.8442 -73.8361 200° South 105 121 4,500  Level Boston Center
Thu 12:54:11 PM 42.8147 -73.8467 195° South 105 121 4,500  Level Boston Center
Thu 12:55:12 PM 42.7875 -73.8575 196° South 105 121 4,500  Level Boston Center
Thu 12:57:07 PM 42.7331 -73.8817 198° South 102 117 4,500  Level Boston Center
Thu 12:58:14 PM 42.7058 -73.8922 196° South 98 113 4,500 47 Level Boston Center
Thu 12:59:14 PM 42.6764 -73.9058 199° South 100 115 4,600 99 Climbing Boston Center
Thu 01:00:15 PM 42.6514 -73.9164 197° South 99 114 4,700 94 Climbing Boston Center
Thu 01:01:22 PM 42.6242 -73.9300 200° South 97 112 4,800 149 Climbing Boston Center
Thu 01:02:16 PM 42.5989 -73.9433 201° Southwest 98 113 5,000 198 Climbing Boston Center
Thu 01:03:23 PM 42.5717 -73.9542 196° South 95 109 5,200 234 Climbing Boston Center
Thu 01:04:24 PM 42.5486 -73.9647 199° South 91 105 5,500 347 Climbing Boston Center
Thu 01:05:24 PM 42.5256 -73.9728 194° South 83 96 5,900 397 Climbing Boston Center
Thu 01:06:25 PM 42.5025 -73.9833 199° South 80 92 6,300 310 Climbing Boston Center
Thu 01:07:20 PM 42.4836 -73.9942 203° Southwest 84 97 6,500 104 Climbing Boston Center
Thu 01:08:20 PM 42.4564 -74.0047 196° South 104 120 6,500 -52 Level Boston Center
Thu 01:09:15 PM 42.4311 -74.0153 197° South 107 123 6,400  Descending Boston Center
Thu 01:10:16 PM 42.4039 -74.0286 200° South 104 120 6,500 47 Climbing Boston Center
Thu 01:11:22 PM 42.3725 -74.0419 197° South 102 117 6,500 47 Level Boston Center
Thu 01:12:23 PM 42.3450 -74.0581 203° Southwest 105 121 6,600 49 Climbing Boston Center
Thu 01:13:24 PM 42.3158 -74.0714 199° South 106 122 6,600 -33 Level Boston Center
Thu 01:15:25 PM 42.2592 -74.0894 193° South 105 121 6,500 -33 Descending Boston Center
Thu 01:16:26 PM 42.2319 -74.1028 200° South 105 121 6,500 50 Level Boston Center
Thu 01:17:26 PM 42.2047 -74.1133 196° South 104 120 6,600 114 Climbing Boston Center
Thu 01:19:04 PM 42.1667 -74.1333 201° Southwest 101 116 6,800 79 Climbing New York TRACON
Thu 01:19:58 PM 42.1333 -74.1333 180° South 101 116 6,800  Level New York TRACON
Thu 01:20:58 PM 42.1000 -74.1500 200° South 104 120 6,800 -150 Level New York TRACON
Thu 01:21:58 PM 42.0833 -74.1667 217° Southwest 101 116 6,500 -50 Descending New York TRACON
Thu 01:22:59 PM 42.0500 -74.1667 180° South 99 114 6,700 95 Climbing New York TRACON
Thu 01:24:04 PM 42.0167 -74.1833 200° South 108 124 6,700  Level New York TRACON
Thu 01:24:59 PM 42.0000 -74.2000 217° Southwest 107 123 6,700 -50 Level New York TRACON
Thu 01:26:04 PM 41.9667 -74.2167 200° South 107 123 6,600 -50 Descending New York TRACON
Thu 01:26:59 PM 41.9500 -74.2167 180° South 104 120 6,600  Level New York TRACON
Thu 01:27:59 PM 41.9167 -74.2333 200° South 104 120 6,600  Level New York TRACON
Thu 01:28:59 PM 41.8833 -74.2500 200° South 103 119 6,600 48 Level New York TRACON
Thu 01:30:04 PM 41.8500 -74.2667 200° South 105 121 6,700 50 Climbing New York TRACON
Thu 01:30:59 PM 41.8333 -74.2667 180° South 106 122 6,700 -52 Level New York TRACON
Thu 01:31:59 PM 41.8000 -74.2833 200° South 105 121 6,600 -50 Descending New York TRACON
Thu 01:32:59 PM 41.7833 -74.3000 217° Southwest 106 122 6,600  Level New York TRACON
Thu 01:33:59 PM 41.7500 -74.3000 180° South 102 117 6,600 -53 Level New York TRACON
Thu 01:34:53 PM 41.7333 -74.3167 217° Southwest 101 116 6,500 -50 Descending New York TRACON
Thu 01:35:59 PM 41.7000 -74.3333 200° South 103 119 6,500 50 Level New York TRACON
Thu 01:36:53 PM 41.6667 -74.3333 180° South 103 119 6,600  Climbing New York TRACON
Thu 01:37:59 PM 41.6500 -74.3500 217° Southwest 103 119 6,500  Descending New York TRACON
Thu 01:38:59 PM 41.6167 -74.3667 200° South 103 119 6,600 50 Climbing New York TRACON
Thu 01:39:59 PM 41.5833 -74.3833 201° Southwest 101 116 6,600  Level New York TRACON
Thu 01:40:53 PM 41.5667 -74.4000 217° Southwest 103 119 6,600 50 Level New York TRACON
Thu 01:41:59 PM 41.5333 -74.4000 180° South 102 117 6,700  Climbing New York TRACON
Thu 01:42:53 PM 41.5167 -74.4167 217° Southwest 101 116 6,600 -157 Descending New York TRACON
Thu 01:43:54 PM 41.4833 -74.4333 201° Southwest 106 122 6,400 -50 Descending New York TRACON
Thu 01:44:54 PM 41.4667 -74.4500 217° Southwest 94 108 6,500 95 Climbing New York TRACON
Thu 01:46:00 PM 41.4333 -74.4500 180° South 99 114 6,600 50 Climbing New York TRACON
Thu 01:46:54 PM 41.4167 -74.4667 217° Southwest 107 123 6,600  Level New York TRACON
Thu 01:47:54 PM 41.3833 -74.4833 201° Southwest 98 113 6,600  Level New York TRACON
Thu 01:48:54 PM 41.3500 -74.4833 180° South 98 113 6,600  Level New York TRACON
Thu 01:50:00 PM 41.3333 -74.5000 217° Southwest 102 117 6,600 48 Level New York TRACON
Thu 01:51:00 PM 41.3000 -74.5167 201° Southwest 103 119 6,700  Climbing New York TRACON
Thu 01:51:54 PM 41.2833 -74.5167 180° South 100 115 6,600 -53 Descending New York TRACON
Thu 01:52:54 PM 41.2500 -74.5333 201° Southwest 91 105 6,600 50 Level New York TRACON
Thu 01:53:54 PM 41.2333 -74.5333 180° South 92 106 6,700 50 Climbing New York TRACON
Thu 01:54:55 PM 41.2000 -74.5500 201° Southwest 96 110 6,700 -52 Level New York TRACON
Thu 01:55:49 PM 41.1833 -74.5500 180° South 96 110 6,600 -53 Descending New York TRACON
Thu 01:56:49 PM 41.1500 -74.5667 201° Southwest 94 108 6,600  Level New York TRACON
Thu 01:57:49 PM 41.1333 -74.5833 217° Southwest 102 117 6,600 50 Level New York TRACON
Thu 01:58:49 PM 41.1000 -74.6000 201° Southwest 102 117 6,700 -48 Climbing New York TRACON
Thu 01:59:55 PM 41.0667 -74.6000 180° South 102 117 6,500 -100 Descending New York TRACON
Thu 02:00:49 PM 41.0500 -74.6167 217° Southwest 99 114 6,500 53 Level New York TRACON
Thu 02:01:49 PM 41.0333 -74.6333 217° Southwest 101 116 6,600 48 Climbing New York TRACON
Thu 02:02:55 PM 41.0000 -74.6333 180° South 101 116 6,600  Level New York TRACON
Thu 02:03:50 PM 40.9667 -74.6500 201° Southwest 100 115 6,600  Level New York TRACON
Thu 02:04:50 PM 40.9500 -74.6667 217° Southwest 96 110 6,600 50 Level New York TRACON
Thu 02:05:50 PM 40.9167 -74.6667 180° South 99 114 6,700  Climbing New York TRACON
Thu 02:06:50 PM 40.9000 -74.6833 217° Southwest 102 117 6,600 -50 Descending New York TRACON
Thu 02:07:50 PM 40.8667 -74.7000 201° Southwest 93 107 6,600 -50 Level New York TRACON
Thu 02:08:50 PM 40.8500 -74.7167 217° Southwest 95 109 6,500 -50 Descending New York TRACON
Thu 02:09:50 PM 40.8167 -74.7167 180° South 89 102 6,500 100 Level New York TRACON
Thu 02:10:50 PM 40.8000 -74.7333 217° Southwest 94 108 6,700 50 Climbing New York TRACON
Thu 02:11:50 PM 40.7667 -74.7333 180° South 99 114 6,600 -50 Descending New York TRACON
Thu 02:12:50 PM 40.7500 -74.7500 217° Southwest 97 112 6,600  Level New York TRACON
Thu 02:13:56 PM 40.7167 -74.7500 180° South 97 112 6,600 -47 Level New York TRACON
Thu 02:14:57 PM 40.7000 -74.7667 217° Southwest 96 110 6,500  Descending New York TRACON
Thu 02:15:57 PM 40.6667 -74.7833 201° Southwest 93 107 6,600  Climbing New York TRACON
Thu 02:16:51 PM 40.6500 -74.7833 180° South 94 108 6,500 -53 Descending New York TRACON
Thu 02:17:51 PM 40.6167 -74.8000 201° Southwest 95 109 6,500  Level New York TRACON
Thu 02:18:51 PM 40.6000 -74.8000 180° South 91 105 6,500  Level New York TRACON
Thu 02:19:51 PM 40.5667 -74.8167 201° Southwest 134 154 6,500 50 Level New York TRACON
Thu 02:20:51 PM 40.5500 -74.8167 180° South 91 105 6,600 50 Climbing New York TRACON
Thu 02:21:51 PM 40.5167 -74.8333 201° Southwest 93 107 6,600  Level New York TRACON
Thu 02:22:51 PM 40.5000 -74.8500 217° Southwest 93 107 6,600  Level New York TRACON
Thu 02:23:52 PM 40.4667 -74.8500 180° South 95 109 6,600 -50 Level New York TRACON
Thu 02:24:52 PM 40.4500 -74.8667 217° Southwest 97 112 6,500 -50 Descending New York TRACON
Thu 02:25:52 PM 40.4167 -74.8833 201° Southwest 98 113 6,500  Level New York TRACON
Thu 02:27:00 PM 40.3878 -74.8689 339° North  Level FlightAware Approximate
Thu 02:34:00 PM 40.2371 -74.9333 180° South  Level FlightAware Approximate
Thu 02:35:00 PM 40.2056 -74.9426 194° South  Level FlightAware Approximate
Thu 02:36:00 PM 40.1745 -74.9544 201° Southwest  Level FlightAware Approximate
Thu 02:37:00 PM 40.1440 -74.9690 197° South  Level FlightAware Approximate
Thu 02:38:00 PM 40.1130 -74.9815 197° South  Level FlightAware Approximate
Thu 02:39:00 PM 40.0820 -74.9939 197° South  Level FlightAware Approximate
Thu 02:40:00 PM 40.0667 -75.0000 197° South  Level FlightAware Approximate
Thu 02:41:00 PM 40.0819 -75.0106 197° South  Level Estimated
Thu 02:42:00 PM 40.0819 -75.0106 197° South  Level Estimated
Thu 02:43:00 PM 40.0819 -75.0106 197° South  Level Estimated
Thu 02:44:00 PM 40.0819 -75.0106 197° South  Level Estimated
Thu 02:45:00 PM 40.0819 -75.0106 197° South  Level Estimated
Thu 02:46:00 PM 40.0819 -75.0106 197° South  Level Estimated
Thu 02:47:00 PM 40.0819 -75.0106 197° South  Level Estimated
Thu 02:48:00 PM 40.0819 -75.0106 197° South  Level Estimated
Thu 02:49:00 PM 40.0819 -75.0106 197° South  Level Estimated
Thu 02:50:00 PM 40.0819 -75.0106 197° South  Level Estimated
Thu 02:51:00 PM 40.0819 -75.0106 197° South  Level Estimated
Thu 02:52:00 PM 40.0819 -75.0106 197° South  Level Estimated

Login

Don't have an account? Register now (free) for customized features, flight alerts, and more!